Time;durP1;ratioP1;P1;durP2;ratioP2;P2;SDS_P1;SDS_P2;PMS_P1;PMS_P2;Temp;Humidity;BMP_temperature;BMP_pressure;BME280_temperature;BME280_humidity;BME280_pressure;Samples;Min_cycle;Max_cycle;Signal;HPM_P1;HPM_P2
2022/01/24 00:01:41;;;;;;;40.60;22.90;;;;;;;6.55;74.68;103441.25;5072785;28;20021;-61
2022/01/24 00:04:08;;;;;;;38.25;21.85;;;;;;;6.56;74.38;103435.22;5073872;28;20073;-61
2022/01/24 00:06:33;;;;;;;32.72;20.30;;;;;;;6.56;74.71;103429.97;5076923;28;20024;-61
2022/01/24 00:09:00;;;;;;;39.08;21.58;;;;;;;6.53;74.90;103435.91;5076578;28;20096;-61
2022/01/24 00:11:36;;;;;;;39.63;20.65;;;;;;;6.57;74.82;103429.16;5076835;28;20032;-61
2022/01/24 00:17:09;;;;;;;36.63;21.75;;;;;;;6.68;73.23;103433.44;5076661;28;20093;-61
2022/01/24 00:27:50;;;;;;;30.70;18.65;;;;;;;6.53;69.60;103433.28;5076554;28;20543;-61
2022/01/24 00:30:17;;;;;;;30.80;17.73;;;;;;;6.47;69.54;103434.59;5076500;28;20032;-61
2022/01/24 00:32:42;;;;;;;29.85;18.33;;;;;;;6.42;69.49;103433.34;5076352;28;20025;-61
2022/01/24 00:35:09;;;;;;;30.13;17.08;;;;;;;6.41;68.74;103423.66;5076592;28;20025;-61
2022/01/24 00:37:34;;;;;;;31.80;19.08;;;;;;;6.41;68.29;103432.44;5076202;28;20056;-61
2022/01/24 00:40:01;;;;;;;29.15;18.15;;;;;;;6.43;69.39;103412.47;5076241;28;20063;-61
2022/01/24 00:42:36;;;;;;;32.83;18.90;;;;;;;6.45;69.44;103412.56;5076122;28;20102;-61
2022/01/24 00:45:09;;;;;;;33.53;19.13;;;;;;;6.48;70.06;103412.78;5076039;28;20107;-61
2022/01/24 00:53:18;;;;;;;32.60;19.27;;;;;;;6.56;69.80;103419.47;5075434;28;20572;-61
2022/01/24 00:55:46;;;;;;;29.95;18.92;;;;;;;6.58;69.36;103420.47;5076002;28;20066;-62
2022/01/24 00:58:12;;;;;;;31.20;18.80;;;;;;;6.60;69.30;103421.50;5075929;28;20052;-61
2022/01/24 01:00:38;;;;;;;32.58;19.02;;;;;;;6.55;69.00;103425.50;5076064;28;20401;-62
2022/01/24 01:03:04;;;;;;;29.45;17.98;;;;;;;6.57;69.39;103425.63;5075858;28;20307;-61
2022/01/24 01:18:04;;;;;;;32.45;19.20;;;;;;;6.53;69.79;103414.91;5075704;28;20028;-61
2022/01/24 01:18:59;;;;;;;33.50;19.02;;;;;;;6.60;69.36;103412.72;5075494;28;20040;-61
2022/01/24 01:21:26;;;;;;;29.13;18.75;;;;;;;6.62;69.05;103413.72;5075416;28;20021;-61
2022/01/24 01:23:56;;;;;;;31.63;18.88;;;;;;;6.59;69.19;103411.78;5075344;28;20411;-61
2022/01/24 01:26:30;;;;;;;30.20;18.45;;;;;;;6.64;69.37;103399.88;5057550;28;20450;-61
2022/01/24 01:29:01;;;;;;;32.17;18.30;;;;;;;6.65;69.70;103399.06;5075302;28;20039;-60
2022/01/24 01:55:49;;;;;;;29.15;16.10;;;;;;;6.70;68.76;103416.03;5074837;28;20109;-61
2022/01/24 01:58:21;;;;;;;29.58;17.20;;;;;;;6.65;69.07;103409.56;5074894;28;20053;-61
2022/01/24 02:00:57;;;;;;;25.42;15.73;;;;;;;6.69;70.14;103411.59;5075047;28;20047;-61
2022/01/24 02:03:25;;;;;;;26.95;15.77;;;;;;;6.68;68.74;103412.41;5074817;28;20039;-60
2022/01/24 02:05:51;;;;;;;24.92;15.38;;;;;;;6.67;68.78;103405.31;5074516;28;20107;-61
2022/01/24 02:08:17;;;;;;;24.73;15.57;;;;;;;6.69;68.30;103411.59;5074959;28;20052;-61
2022/01/24 02:10:43;;;;;;;23.73;14.98;;;;;;;6.69;68.40;103405.44;5074468;28;20032;-61
2022/01/24 02:13:10;;;;;;;24.42;15.02;;;;;;;6.67;68.38;103405.31;5074541;28;20076;-61
2022/01/24 02:18:13;;;;;;;23.25;14.27;;;;;;;6.69;68.04;103401.09;5074672;28;20037;-61
2022/01/24 02:23:37;;;;;;;23.73;14.43;;;;;;;6.57;68.43;103392.38;5054835;28;20045;-61
2022/01/24 02:26:10;;;;;;;22.42;13.60;;;;;;;6.59;68.72;103387.22;5053901;28;20477;-61
2022/01/24 02:28:50;;;;;;;24.02;14.00;;;;;;;6.60;68.53;103386.44;5054391;28;20095;-61
2022/01/24 02:33:49;;;;;;;21.23;13.88;;;;;;;6.57;68.98;103396.72;5054350;28;20025;-61
2022/01/24 02:36:22;;;;;;;24.73;13.10;;;;;;;6.55;68.24;103393.97;5054316;28;20514;-61
2022/01/24 02:39:08;;;;;;;23.50;14.35;;;;;;;6.51;67.95;103390.25;5054193;28;20127;-61
2022/01/24 02:49:33;;;;;;;25.27;13.85;;;;;;;6.51;69.28;103382.38;5054142;28;20033;-61
2022/01/24 02:52:10;;;;;;;21.52;12.82;;;;;;;6.49;69.84;103376.09;5054136;28;20124;-61
2022/01/24 02:54:37;;;;;;;25.80;13.90;;;;;;;6.46;68.66;103382.84;5053808;28;20104;-61
2022/01/24 02:57:05;;;;;;;25.98;13.85;;;;;;;6.47;68.95;103380.34;5053741;28;20572;-61
2022/01/24 02:59:30;;;;;;;25.15;14.13;;;;;;;6.46;67.46;103381.13;5053808;28;20326;-61
2022/01/24 03:01:56;;;;;;;21.75;13.38;;;;;;;6.45;67.70;103370.53;5053793;28;20394;-61
2022/01/24 03:04:22;;;;;;;22.02;13.52;;;;;;;6.48;68.37;103373.38;5053667;28;20021;-61
2022/01/24 03:06:47;;;;;;;21.98;13.27;;;;;;;6.44;68.09;103366.09;5053676;28;20029;-61
2022/01/24 03:09:14;;;;;;;20.63;12.82;;;;;;;6.43;68.64;103375.69;5053488;28;20086;-61
2022/01/24 03:14:30;;;;;;;22.25;13.23;;;;;;;6.44;67.76;103368.72;5053989;28;20072;-61
2022/01/24 03:16:56;;;;;;;21.38;12.88;;;;;;;6.46;68.46;103368.00;5035688;28;20409;-60
2022/01/24 03:19:21;;;;;;;22.98;13.38;;;;;;;6.48;68.04;103362.88;5053475;28;20099;-61
2022/01/24 03:21:47;;;;;;;20.55;12.65;;;;;;;6.47;68.38;103368.94;5053371;28;20029;-61
2022/01/24 03:24:14;;;;;;;21.40;12.68;;;;;;;6.45;68.00;103368.81;5053345;28;20044;-61
2022/01/24 03:26:40;;;;;;;20.20;12.88;;;;;;;6.41;67.87;103363.25;5053324;28;20032;-61
2022/01/24 03:29:06;;;;;;;22.88;13.25;;;;;;;6.42;69.05;103365.06;5053277;28;20051;-61
2022/01/24 03:31:33;;;;;;;20.08;12.18;;;;;;;6.40;69.22;103357.09;5053270;28;20066;-61
2022/01/24 03:33:59;;;;;;;20.73;12.73;;;;;;;6.32;67.79;103355.66;5053114;28;20029;-61
2022/01/24 03:36:24;;;;;;;21.00;13.10;;;;;;;6.21;68.41;103356.63;5053179;28;20035;-61
2022/01/24 03:38:50;;;;;;;21.13;13.00;;;;;;;6.16;69.31;103360.66;5052169;28;20025;-61
2022/01/24 03:41:16;;;;;;;23.15;13.55;;;;;;;6.13;68.90;103356.13;5052908;28;20045;-61
2022/01/24 03:43:41;;;;;;;22.92;13.23;;;;;;;6.11;69.62;103356.81;5053199;28;20028;-61
2022/01/24 03:46:12;;;;;;;21.88;13.30;;;;;;;6.13;69.50;103358.75;5053025;28;20029;-61
2022/01/24 03:48:46;;;;;;;21.23;12.57;;;;;;;6.22;69.13;103367.25;5053058;28;20029;-61
2022/01/24 03:51:12;;;;;;;21.90;13.73;;;;;;;6.27;69.32;103360.59;5052977;28;20033;-61
2022/01/24 03:53:37;;;;;;;22.08;12.80;;;;;;;6.34;69.30;103363.63;5052856;28;20031;-61
2022/01/24 03:56:04;;;;;;;23.80;13.57;;;;;;;6.36;69.22;103364.66;5052941;28;20024;-61
2022/01/24 03:58:29;;;;;;;22.40;13.02;;;;;;;6.31;68.36;103361.72;5052973;28;20017;-61
2022/01/24 04:00:55;;;;;;;20.38;13.02;;;;;;;6.32;68.33;103360.00;5052930;28;20078;-61
2022/01/24 04:03:21;;;;;;;20.33;12.85;;;;;;;6.33;67.81;103359.19;5052931;28;20032;-61
2022/01/24 04:05:48;;;;;;;24.77;13.82;;;;;;;6.26;68.17;103358.78;5052742;28;20033;-61
2022/01/24 04:08:14;;;;;;;25.80;14.02;;;;;;;6.26;68.08;103353.53;5052788;28;20083;-61
2022/01/24 04:10:49;;;;;;;20.15;12.95;;;;;;;6.25;67.71;103358.66;5052847;28;20057;-61
2022/01/24 04:16:09;;;;;;;20.63;13.60;;;;;;;6.24;69.44;103356.84;5053092;28;20044;-60
2022/01/24 04:18:58;;;;;;;22.83;13.73;;;;;;;6.25;69.24;103358.66;5052497;28;20406;-61
2022/01/24 04:21:33;;;;;;;21.15;13.18;;;;;;;6.23;69.58;103355.03;5052715;28;20021;-61
2022/01/24 04:24:06;;;;;;;21.08;12.93;;;;;;;6.21;69.71;103354.94;5052476;28;20471;-61
2022/01/24 04:26:34;;;;;;;21.90;12.68;;;;;;;6.24;69.07;103343.72;5052815;28;20082;-61
2022/01/24 04:29:00;;;;;;;23.90;13.82;;;;;;;6.20;68.09;103342.59;5052713;28;20556;-61
2022/01/24 04:31:27;;;;;;;21.90;13.57;;;;;;;6.17;69.26;103350.28;5034834;28;20371;-61
2022/01/24 04:33:53;;;;;;;25.30;14.52;;;;;;;6.17;67.65;103350.28;5052658;28;20025;-61
2022/01/24 04:36:20;;;;;;;24.00;15.15;;;;;;;6.09;67.28;103350.56;5052614;28;20538;-61
2022/01/24 04:38:46;;;;;;;21.92;13.88;;;;;;;6.11;68.08;103357.72;5052581;28;20058;-61
2022/01/24 04:41:18;;;;;;;22.98;14.63;;;;;;;6.12;68.26;103353.38;5052231;28;20497;-61
2022/01/24 04:51:54;;;;;;;23.77;13.88;;;;;;;6.33;68.58;103356.56;5056247;28;20040;-61
2022/01/24 04:56:54;;;;;;;23.02;13.48;;;;;;;6.40;68.74;103364.06;5056209;28;20028;-61
2022/01/24 04:59:20;;;;;;;24.60;14.18;;;;;;;6.36;67.99;103362.94;5056155;28;20416;-61
2022/01/24 05:01:45;;;;;;;24.58;15.15;;;;;;;6.28;68.08;103354.53;5056035;28;20035;-61
2022/01/24 05:04:10;;;;;;;22.77;13.45;;;;;;;6.31;68.83;103360.81;5056066;28;20029;-60
2022/01/24 05:06:36;;;;;;;23.73;14.82;;;;;;;6.27;68.20;103362.31;5055823;28;20028;-61
2022/01/24 05:09:04;;;;;;;24.90;14.43;;;;;;;6.23;68.45;103370.78;5055897;28;20094;-60
2022/01/24 05:11:54;;;;;;;23.23;14.63;;;;;;;6.18;68.87;103369.56;5055879;28;20021;-61
2022/01/24 05:25:15;;;;;;;23.83;14.32;;;;;;;6.32;68.98;103360.00;5055482;28;20040;-63
2022/01/24 05:27:46;;;;;;;22.77;13.75;;;;;;;6.30;69.51;103361.63;5055496;28;20037;-61
2022/01/24 05:30:13;;;;;;;22.33;14.05;;;;;;;6.32;69.15;103358.28;5055787;28;20039;-61
2022/01/24 05:32:38;;;;;;;27.92;15.18;;;;;;;6.34;67.44;103359.31;5055658;28;20378;-60
2022/01/24 05:35:04;;;;;;;23.65;14.60;;;;;;;6.34;68.84;103356.69;5055407;28;20029;-61
2022/01/24 05:37:29;;;;;;;24.10;14.25;;;;;;;6.38;68.63;103361.34;5055368;28;20039;-61
2022/01/24 05:39:55;;;;;;;23.75;14.35;;;;;;;6.38;69.09;103355.16;5055224;28;20025;-61
2022/01/24 05:42:21;;;;;;;24.13;14.30;;;;;;;6.39;69.24;103349.13;5054970;28;20072;-61
2022/01/24 05:44:50;;;;;;;21.80;13.75;;;;;;;6.40;69.16;103354.47;5055203;28;20029;-61
2022/01/24 05:47:16;;;;;;;23.33;13.75;;;;;;;6.42;69.19;103352.84;5055263;28;20470;-61
2022/01/24 05:49:42;;;;;;;23.98;14.50;;;;;;;6.43;68.76;103365.19;5055292;28;20474;-61
2022/01/24 05:52:11;;;;;;;22.02;13.73;;;;;;;6.44;69.26;103360.84;5055146;28;20024;-61
2022/01/24 05:54:41;;;;;;;22.80;14.00;;;;;;;6.40;68.56;103362.34;5055068;28;20075;-60
2022/01/24 05:57:07;;;;;;;24.10;14.07;;;;;;;6.34;68.85;103363.63;5054958;28;20049;-61
2022/01/24 05:59:34;;;;;;;23.60;14.50;;;;;;;6.37;69.11;103363.84;5055036;28;20039;-61
2022/01/24 06:02:05;;;;;;;24.48;14.77;;;;;;;6.31;69.57;103359.09;5054064;28;20413;-61
2022/01/24 06:04:31;;;;;;;23.38;14.00;;;;;;;6.29;68.88;103363.31;5055071;28;20025;-61
2022/01/24 06:06:56;;;;;;;24.27;14.57;;;;;;;6.27;69.19;103357.06;5054857;28;20059;-61
2022/01/24 06:09:22;;;;;;;23.77;14.48;;;;;;;6.31;68.93;103366.06;5054658;28;20036;-61
2022/01/24 06:11:47;;;;;;;24.27;15.07;;;;;;;6.31;67.98;103366.97;5054663;28;20429;-61
2022/01/24 06:14:13;;;;;;;22.77;14.55;;;;;;;6.25;69.26;103361.28;5055030;28;20118;-61
2022/01/24 06:16:40;;;;;;;23.95;14.52;;;;;;;6.24;69.11;103363.00;5054648;28;20351;-61
2022/01/24 06:19:06;;;;;;;25.15;15.65;;;;;;;6.16;68.89;103351.06;5054680;28;20505;-61
2022/01/24 06:21:31;;;;;;;25.13;15.32;;;;;;;6.16;69.23;103364.19;5054436;28;20029;-61
2022/01/24 06:23:56;;;;;;;28.73;15.90;;;;;;;6.10;68.14;103357.63;5054581;28;20108;-61
2022/01/24 06:26:25;;;;;;;25.73;15.30;;;;;;;6.09;68.04;103358.44;5054289;28;20112;-61
2022/01/24 06:28:51;;;;;;;24.92;15.65;;;;;;;6.10;67.41;103368.13;5054323;28;20060;-61
2022/01/24 06:31:18;;;;;;;25.10;15.02;;;;;;;6.10;68.14;103361.16;5054075;28;20021;-60
2022/01/24 06:33:44;;;;;;;23.95;14.95;;;;;;;6.12;68.48;103364.78;5054014;28;20036;-60
2022/01/24 06:36:12;;;;;;;24.48;14.95;;;;;;;6.14;69.08;103362.28;5053868;28;20107;-60
2022/01/24 06:38:37;;;;;;;24.55;14.85;;;;;;;6.11;68.93;103352.47;5053926;28;20025;-60
2022/01/24 06:41:03;;;;;;;26.70;15.35;;;;;;;6.12;69.23;103359.53;5053614;28;20081;-61
2022/01/24 06:43:28;;;;;;;27.10;15.50;;;;;;;6.16;69.87;103360.66;5053979;28;20094;-61
2022/01/24 06:45:54;;;;;;;26.40;15.65;;;;;;;6.18;69.04;103356.44;5053924;28;20402;-61
2022/01/24 06:48:19;;;;;;;22.85;14.80;;;;;;;6.18;69.22;103361.69;5054047;28;20382;-61
2022/01/24 06:50:45;;;;;;;23.02;13.98;;;;;;;6.20;68.92;103355.72;5054095;28;20070;-61
2022/01/24 06:53:10;;;;;;;23.38;15.00;;;;;;;6.23;68.94;103368.16;5053866;28;20025;-61
2022/01/24 06:55:36;;;;;;;24.02;15.07;;;;;;;6.21;69.10;103361.88;5053600;28;20037;-61
2022/01/24 06:58:01;;;;;;;26.75;15.77;;;;;;;6.16;68.69;103366.81;5054048;28;20025;-61
2022/01/24 07:00:29;;;;;;;25.77;15.10;;;;;;;6.13;68.93;103361.38;5053823;28;20606;-61
2022/01/24 07:02:57;;;;;;;26.77;15.82;;;;;;;6.07;69.32;103366.16;5053779;28;20029;-61
2022/01/24 07:05:23;;;;;;;26.98;16.85;;;;;;;5.93;69.43;103362.59;5053588;28;20059;-60
2022/01/24 07:07:50;;;;;;;23.52;15.07;;;;;;;5.84;70.02;103367.16;5053628;28;20036;-61
2022/01/24 07:10:16;;;;;;;26.23;15.68;;;;;;;5.77;68.80;103363.19;5053582;28;20040;-61
2022/01/24 07:12:41;;;;;;;26.17;15.82;;;;;;;5.80;70.85;103369.47;5053373;28;20025;-61
2022/01/24 07:15:14;;;;;;;23.52;14.95;;;;;;;5.81;69.82;103372.19;5053582;28;20036;-60
2022/01/24 07:20:16;;;;;;;25.85;15.88;;;;;;;5.90;69.15;103380.72;5053510;28;19913;-61
2022/01/24 07:22:42;;;;;;;25.65;15.90;;;;;;;5.91;68.86;103376.38;5053629;28;20079;-61
2022/01/24 07:25:08;;;;;;;26.60;16.05;;;;;;;5.87;69.38;103376.97;5053031;28;20029;-61
2022/01/24 07:27:33;;;;;;;25.40;15.77;;;;;;;5.81;69.51;103381.78;5053588;28;20048;-60
2022/01/24 07:30:01;;;;;;;25.27;16.52;;;;;;;5.71;70.33;103385.47;5053266;28;20479;-61
2022/01/24 07:32:30;;;;;;;25.73;15.85;;;;;;;5.66;70.64;103384.25;5053287;28;20032;-60
2022/01/24 07:34:56;;;;;;;28.45;16.70;;;;;;;5.65;70.32;103380.72;5053230;28;20029;-61
2022/01/24 07:37:22;;;;;;;27.73;16.23;;;;;;;5.65;70.76;103382.38;5053214;28;20425;-60
2022/01/24 07:39:48;;;;;;;30.52;18.20;;;;;;;5.61;70.13;103378.66;5052975;28;20100;-61
2022/01/24 07:42:16;;;;;;;32.58;18.83;;;;;;;5.52;70.42;103376.28;5053067;28;20048;-61
2022/01/24 07:44:42;;;;;;;30.50;17.90;;;;;;;5.47;70.43;103384.59;5052921;28;20068;-61
2022/01/24 07:47:07;;;;;;;31.05;18.77;;;;;;;5.50;70.92;103383.13;5035203;28;20025;-61
2022/01/24 07:49:34;;;;;;;34.55;18.98;;;;;;;5.53;70.00;103380.72;5053267;28;20024;-60
2022/01/24 07:52:00;;;;;;;35.97;20.48;;;;;;;5.49;70.27;103381.31;5053051;28;20051;-61
2022/01/24 07:54:26;;;;;;;32.92;18.95;;;;;;;5.49;70.68;103388.28;5052787;28;20104;-61
2022/01/24 07:56:55;;;;;;;34.47;20.23;;;;;;;5.52;70.71;103397.28;5052957;28;20112;-61
2022/01/24 07:59:20;;;;;;;33.78;19.40;;;;;;;5.60;71.01;103412.63;5052935;28;20048;-61
2022/01/24 08:01:46;;;;;;;30.55;18.50;;;;;;;5.62;70.66;103411.03;5053128;28;20075;-61
2022/01/24 08:04:12;;;;;;;34.83;18.83;;;;;;;5.69;71.12;103414.19;5052798;28;20029;-61
2022/01/24 08:06:38;;;;;;;32.80;19.48;;;;;;;5.69;70.42;103419.44;5034947;28;20032;-60
2022/01/24 08:09:05;;;;;;;32.20;18.60;;;;;;;5.69;70.48;103419.44;5052649;28;20025;-61
2022/01/24 08:11:31;;;;;;;33.38;19.38;;;;;;;5.70;70.32;103415.13;5053076;28;20103;-61
2022/01/24 08:13:57;;;;;;;35.30;19.77;;;;;;;5.74;69.72;103425.94;5052740;28;20052;-60
2022/01/24 08:16:23;;;;;;;34.40;19.92;;;;;;;5.67;68.94;103422.78;5052984;28;20394;-61
2022/01/24 08:18:51;;;;;;;34.17;19.92;;;;;;;5.68;69.79;103424.59;5052672;28;20064;-61
2022/01/24 08:21:17;;;;;;;32.15;19.25;;;;;;;5.66;68.83;103416.63;5052832;28;20032;-61
2022/01/24 08:23:43;;;;;;;32.55;19.75;;;;;;;5.68;68.99;103409.75;5052693;28;20025;-61
2022/01/24 08:26:08;;;;;;;32.28;19.50;;;;;;;5.67;69.03;103415.81;5055399;28;20147;-61
2022/01/24 08:28:34;;;;;;;33.97;18.77;;;;;;;5.60;69.81;103410.00;5056603;28;20032;-61
2022/01/24 08:31:00;;;;;;;32.20;19.38;;;;;;;5.55;69.79;103414.91;5056618;28;20068;-61
2022/01/24 08:33:25;;;;;;;31.50;18.60;;;;;;;5.57;70.40;103421.22;5056571;28;20467;-60
2022/01/24 08:35:52;;;;;;;33.45;19.85;;;;;;;5.57;69.10;103410.72;5056611;28;20028;-61
2022/01/24 08:38:19;;;;;;;32.60;19.60;;;;;;;5.60;69.48;103410.91;5056719;28;20029;-61
2022/01/24 08:40:47;;;;;;;35.00;19.95;;;;;;;5.62;69.99;103414.56;5056366;28;20083;-61
2022/01/24 08:43:13;;;;;;;33.35;18.92;;;;;;;5.57;69.58;103415.03;5055985;28;20087;-61
2022/01/24 08:45:58;;;;;;;34.42;20.65;;;;;;;5.45;69.51;103429.09;5056466;28;20021;-61
2022/01/24 08:48:24;;;;;;;33.92;20.10;;;;;;;5.45;69.37;103431.72;5056408;28;20029;-60
2022/01/24 08:50:52;;;;;;;36.13;20.63;;;;;;;5.44;70.22;103421.13;5056255;28;20501;-60
2022/01/24 08:53:18;;;;;;;34.30;20.48;;;;;;;5.49;70.43;103428.50;5056364;28;20021;-61
2022/01/24 08:55:44;;;;;;;32.00;20.08;;;;;;;5.50;69.96;103430.31;5056195;28;20509;-61
2022/01/24 08:58:13;;;;;;;31.90;19.42;;;;;;;5.53;69.67;103420.06;5056112;28;20394;-60
2022/01/24 09:00:40;;;;;;;31.75;19.60;;;;;;;5.55;69.43;103425.41;5056213;28;20089;-60
2022/01/24 09:03:05;;;;;;;36.40;19.17;;;;;;;5.58;70.03;103429.97;5056126;28;20017;-61
2022/01/24 09:05:35;;;;;;;33.88;19.85;;;;;;;5.60;69.58;103424.03;5055997;28;20532;-61
2022/01/24 09:08:06;;;;;;;33.55;19.88;;;;;;;5.66;69.53;103418.34;5055909;28;20027;-60
2022/01/24 09:10:34;;;;;;;35.33;21.03;;;;;;;5.61;69.47;103419.69;5056095;28;20128;-60
2022/01/24 09:12:59;;;;;;;35.92;19.77;;;;;;;5.57;69.86;103436.00;5055939;28;20027;-60
2022/01/24 09:15:25;;;;;;;31.13;19.23;;;;;;;5.56;69.17;103434.19;5055879;28;20104;-61
2022/01/24 09:17:51;;;;;;;31.25;18.58;;;;;;;5.56;70.63;103431.56;5056064;28;20028;-61
2022/01/24 09:20:16;;;;;;;35.97;20.27;;;;;;;5.58;69.30;103428.28;5055790;28;20557;-60
2022/01/24 09:22:43;;;;;;;33.78;20.05;;;;;;;5.65;69.33;103437.47;5055437;28;20032;-61
2022/01/24 09:25:12;;;;;;;33.15;19.67;;;;;;;5.59;69.82;103443.19;5055708;28;20037;-61
2022/01/24 09:27:39;;;;;;;33.85;19.48;;;;;;;5.53;69.56;103433.19;5055846;28;20021;-61
2022/01/24 09:30:06;;;;;;;33.33;19.02;;;;;;;5.44;69.79;103429.91;5055570;28;20105;-60
2022/01/24 09:32:32;;;;;;;32.75;19.45;;;;;;;5.36;69.54;103430.13;5055511;28;20036;-61
2022/01/24 09:34:57;;;;;;;32.13;18.83;;;;;;;5.37;70.07;103431.94;5055576;28;20029;-60
2022/01/24 09:37:23;;;;;;;32.95;18.95;;;;;;;5.32;70.49;103431.59;5053904;28;20478;-61
2022/01/24 09:39:48;;;;;;;33.08;19.83;;;;;;;5.35;70.43;103428.28;5055255;28;20025;-60
2022/01/24 09:42:15;;;;;;;32.95;20.17;;;;;;;5.27;70.08;103427.75;5055243;28;20045;-60
2022/01/24 09:44:41;;;;;;;32.15;18.25;;;;;;;5.22;69.82;103434.34;5055225;28;20493;-60
2022/01/24 09:47:06;;;;;;;34.25;18.83;;;;;;;5.23;69.77;103428.31;5037283;28;20025;-60
2022/01/24 09:49:32;;;;;;;32.35;18.60;;;;;;;5.29;70.02;103434.00;5037367;28;20017;-61
2022/01/24 09:51:57;;;;;;;33.13;19.60;;;;;;;5.33;70.35;103432.53;5055070;28;20032;-61
2022/01/24 09:54:22;;;;;;;33.13;19.27;;;;;;;5.38;69.98;103426.81;5055033;28;20057;-61
2022/01/24 09:56:48;;;;;;;33.20;19.52;;;;;;;5.41;69.63;103426.13;5055277;28;20051;-60
2022/01/24 09:59:13;;;;;;;34.10;19.90;;;;;;;5.43;70.48;103420.19;5055194;28;20359;-60
2022/01/24 10:01:39;;;;;;;35.08;20.48;;;;;;;5.39;69.93;103423.38;5055005;28;20016;-60
2022/01/24 10:04:11;;;;;;;34.20;18.73;;;;;;;5.41;70.31;103419.16;5054929;28;20033;-60
2022/01/24 10:06:56;;;;;;;32.35;19.17;;;;;;;5.45;70.06;103430.81;5054745;28;20124;-61
2022/01/24 10:09:39;;;;;;;32.35;18.90;;;;;;;5.48;69.38;103429.31;5054737;28;20059;-60
2022/01/24 10:16:24;;;;;;;32.97;18.63;;;;;;;5.52;69.28;103434.00;5054806;28;20025;-60
2022/01/24 10:18:05;;;;;;;32.97;19.60;;;;;;;5.56;68.98;103419.34;5054757;28;20063;-60
2022/01/24 10:20:41;;;;;;;32.05;18.95;;;;;;;5.54;68.96;103420.97;5054681;28;20036;-61
2022/01/24 10:23:12;;;;;;;34.47;18.73;;;;;;;5.55;69.01;103421.88;5054549;28;20039;-60
2022/01/24 10:25:45;;;;;;;35.05;20.10;;;;;;;5.55;70.43;103432.38;5054387;28;20471;-62
2022/01/24 10:28:11;;;;;;;33.33;18.73;;;;;;;5.56;69.99;103418.44;5054510;28;20060;-61
2022/01/24 10:30:36;;;;;;;36.20;19.20;;;;;;;5.62;69.38;103418.91;5054749;28;20060;-60
2022/01/24 10:33:04;;;;;;;30.85;18.75;;;;;;;5.70;69.21;103420.38;5054349;28;20029;-61
2022/01/24 10:35:43;;;;;;;35.08;20.35;;;;;;;5.67;69.04;103426.31;5054372;28;20470;-60
2022/01/24 10:38:27;;;;;;;33.30;20.15;;;;;;;5.48;69.35;103418.84;5054411;28;20032;-60
2022/01/24 10:41:16;;;;;;;32.35;19.63;;;;;;;5.47;69.40;103421.31;5054141;28;20029;-60
2022/01/24 10:43:41;;;;;;;32.40;19.48;;;;;;;5.51;69.65;103415.50;5054004;28;20101;-61
2022/01/24 10:46:08;;;;;;;34.75;19.63;;;;;;;5.59;68.68;103416.06;5054278;28;20478;-61
2022/01/24 10:48:39;;;;;;;31.75;19.02;;;;;;;5.67;69.06;103413.19;5053899;28;20021;-60
2022/01/24 10:51:12;;;;;;;33.47;19.88;;;;;;;5.78;68.69;103406.06;5053980;28;20028;-60
2022/01/24 10:53:37;;;;;;;33.35;19.90;;;;;;;5.83;68.45;103403.81;5054178;28;20029;-60
2022/01/24 10:56:25;;;;;;;35.28;19.15;;;;;;;5.86;68.96;103406.63;5053784;28;20437;-60
2022/01/24 10:58:52;;;;;;;32.60;19.38;;;;;;;5.84;68.33;103400.38;5053880;28;20025;-60
2022/01/24 11:01:24;;;;;;;33.88;20.02;;;;;;;5.84;68.35;103401.28;5053676;28;20107;-62
2022/01/24 11:04:02;;;;;;;31.73;18.95;;;;;;;5.90;68.36;103400.78;5053736;28;20025;-61
2022/01/24 11:06:33;;;;;;;33.70;19.13;;;;;;;5.89;68.18;103397.25;5053575;28;20516;-60
2022/01/24 11:09:19;;;;;;;34.00;19.63;;;;;;;5.93;68.09;103398.44;5053757;28;20029;-61
2022/01/24 11:11:45;;;;;;;34.15;19.73;;;;;;;5.93;67.76;103396.72;5053662;28;20314;-60
2022/01/24 11:14:15;;;;;;;35.75;19.38;;;;;;;5.99;68.40;103402.38;5053785;28;20029;-60
2022/01/24 11:16:41;;;;;;;35.63;19.65;;;;;;;6.06;67.73;103397.56;5053756;28;20033;-60
2022/01/24 11:19:15;;;;;;;33.20;19.15;;;;;;;6.08;67.82;103399.53;5053815;28;20466;-61
2022/01/24 11:21:43;;;;;;;33.75;19.75;;;;;;;6.10;67.63;103395.28;5053622;28;20028;-60
2022/01/24 11:24:09;;;;;;;36.25;20.45;;;;;;;6.13;67.45;103391.97;5053517;28;20033;-60
2022/01/24 11:26:36;;;;;;;33.15;19.83;;;;;;;6.16;67.14;103390.44;5053277;28;20033;-61
2022/01/24 11:29:03;;;;;;;32.53;19.33;;;;;;;6.19;67.29;103388.03;5035610;28;20064;-60
2022/01/24 11:31:38;;;;;;;34.42;19.70;;;;;;;6.21;67.18;103382.88;5053343;28;20075;-60
2022/01/24 11:34:39;;;;;;;37.78;19.70;;;;;;;6.20;67.53;103383.69;5053233;28;20017;-60
2022/01/24 11:37:07;;;;;;;32.60;18.20;;;;;;;6.03;66.50;103387.75;5053067;28;20028;-61
2022/01/24 11:39:36;;;;;;;33.67;18.17;;;;;;;5.96;67.63;103391.69;5053241;28;20052;-61
2022/01/24 11:42:02;;;;;;;30.05;17.65;;;;;;;6.04;67.74;103394.84;5052326;28;20048;-60
2022/01/24 11:44:47;;;;;;;30.85;19.10;;;;;;;6.15;67.99;103387.72;5052996;28;20041;-61
2022/01/24 11:47:22;;;;;;;30.13;18.05;;;;;;;6.24;66.64;103396.22;5053276;28;20063;-61
2022/01/24 11:49:52;;;;;;;31.75;17.88;;;;;;;6.30;67.08;103393.13;5035254;28;20471;-61
2022/01/24 11:52:18;;;;;;;32.10;18.98;;;;;;;6.33;66.56;103394.22;5052979;28;20021;-61
2022/01/24 11:54:51;;;;;;;32.28;19.00;;;;;;;6.34;66.56;103387.25;5053158;28;20025;-60
2022/01/24 11:57:40;;;;;;;28.63;18.98;;;;;;;6.11;65.97;103380.44;5052970;28;20501;-60
2022/01/24 12:00:06;;;;;;;29.40;17.25;;;;;;;6.04;66.67;103373.84;5052347;28;20075;-61
2022/01/24 12:02:40;;;;;;;30.08;17.40;;;;;;;6.00;66.40;103367.47;5052974;28;20486;-60
2022/01/24 12:05:14;;;;;;;28.52;17.10;;;;;;;6.07;66.18;103365.28;5052863;28;20470;-60
2022/01/24 12:07:52;;;;;;;30.98;17.80;;;;;;;6.11;66.06;103370.84;5052909;28;20025;-60
2022/01/24 12:10:36;;;;;;;29.95;18.25;;;;;;;6.23;66.59;103363.81;5052830;28;20045;-62
2022/01/24 12:13:36;;;;;;;31.00;17.45;;;;;;;6.33;66.18;103365.34;5034916;28;20033;-61
2022/01/24 12:16:10;;;;;;;31.20;18.70;;;;;;;6.31;67.17;103363.44;5035014;28;20085;-61
2022/01/24 12:18:35;;;;;;;30.85;19.02;;;;;;;6.27;65.83;103370.19;5052854;28;20028;-61
2022/01/24 12:21:01;;;;;;;30.67;18.73;;;;;;;6.33;66.05;103362.72;5052851;28;20430;-61
2022/01/24 12:23:35;;;;;;;29.90;18.33;;;;;;;6.24;66.26;103359.47;5052630;28;20025;-61
2022/01/24 12:26:14;;;;;;;32.35;18.73;;;;;;;6.14;66.23;103355.31;5052359;28;20112;-61
2022/01/24 12:28:42;;;;;;;32.65;18.70;;;;;;;6.19;66.94;103358.25;5052831;28;20032;-61
2022/01/24 12:31:09;;;;;;;29.77;18.17;;;;;;;6.26;66.31;103355.25;5052631;28;20036;-61
2022/01/24 12:33:39;;;;;;;33.85;18.90;;;;;;;6.36;66.87;103354.16;5052714;28;20049;-60
2022/01/24 12:36:12;;;;;;;31.80;17.58;;;;;;;6.39;66.24;103357.91;5052569;28;20029;-61
2022/01/24 12:38:44;;;;;;;28.83;17.63;;;;;;;6.48;64.63;103350.66;5052494;28;20491;-61
2022/01/24 12:41:26;;;;;;;27.88;16.48;;;;;;;6.53;65.83;103348.31;5052436;28;20029;-61
2022/01/24 12:46:27;;;;;;;31.52;19.40;;;;;;;6.61;65.47;103339.25;5052619;28;20040;-61
2022/01/24 12:48:53;;;;;;;32.15;19.00;;;;;;;6.67;65.83;103339.63;5052659;28;20044;-62
2022/01/24 12:51:23;;;;;;;30.48;19.17;;;;;;;6.66;65.96;103329.03;5052645;28;20481;-61
2022/01/24 12:53:52;;;;;;;28.20;16.98;;;;;;;6.77;65.48;103333.31;5052540;28;20504;-61
2022/01/24 12:56:23;;;;;;;29.15;17.92;;;;;;;6.91;65.56;103340.38;5052363;28;20076;-61
2022/01/24 12:58:50;;;;;;;28.67;17.05;;;;;;;6.87;64.34;103330.47;5034653;28;20076;-61
2022/01/24 13:01:32;;;;;;;32.17;18.17;;;;;;;6.78;64.92;103333.38;5034433;28;20032;-61
2022/01/24 13:04:11;;;;;;;30.73;17.92;;;;;;;6.79;65.23;103326.41;5052399;28;20033;-61
2022/01/24 13:06:42;;;;;;;33.22;16.67;;;;;;;6.81;63.79;103322.19;5052275;28;20040;-61
2022/01/24 13:09:19;;;;;;;31.52;17.88;;;;;;;6.87;64.26;103317.31;5052334;28;20512;-60